MMZC/ZCL METAR and TAF weather

Enter ICAO airport designator
Station Type Date Time Source
MMZC METAR 2020/02/20 16:48 UTC NOAA

MMZC 201648Z 36005KT 10SM SKC 18/04 A3034


Station Type Date Time Source
MMZC Decoded METAR 2020/02/20 16:48 UTC NOAA

Zacatecas Airport, Mexico (MMZC) 22-54N 102-41W
Feb 20, 2020 - 11:48 AM EST / 2020.02.20 1648 UTC
Wind: from the N (360 degrees) at 6 MPH (5 KT):0
Visibility: 10 mile(s):0
Sky conditions: clear
Temperature: 64 F (18 C)
Dew Point: 39 F (4 C)
Relative Humidity: 39%
Pressure (altimeter): 30.34 in. Hg (1027 hPa)
ob: MMZC 201648Z 36005KT 10SM SKC 18/04 A3034
cycle: 17

Station Type Date Time Source
MMZC TAF 2020/02/20 18:43 UTC NOAA

TAF MMZC 201636Z 2018/2124 04010KT P6SM SKC TX25/2021Z TN06/2112Z
BECMG 2101/2102 00000KT
FM210900 00000KT 1SM BR OVC004
TEMPO 2112/2115 1/2SM FG
FM211600 00000KT 3SM HZ SCT010

Example: see airport list